Terminal Aerodrome Forecast
Issued by NWS

Home | Current Version | Previous Version | Text Only | Print | Product List | Glossary Off
Versions: 1 2 3 4 5 6 7 8 9 10 11 12 13 14 15 16 17 18 19 20 21 22 23 24 25

495
FTUS43 KLOT 220655 AAA
TAFMDW
TAF AMD
KMDW 220655Z 2207/2312 35004KT 1SM BR OVC004
      TEMPO 2209/2213 1/2SM FG VV002
     FM221500 33007KT P6SM BKN008 OVC013
     FM221800 35007KT P6SM BKN015
     FM222100 02008KT P6SM BKN023
     FM222300 06008KT P6SM SCT035
     FM230600 VRB02KT 4SM BR SCT003 OVC012=

USA.gov is the U.S. government's official web portal to all federal, state and local government web resources and services.